sensor_id;sensor_type;location;lat;lon;timestamp;P1;durP1;ratioP1;P2;durP2;ratioP2
10347;SDS011;5220;43.192;23.284;2022-08-24T00:02:23;5.95;;;2.58;;
10347;SDS011;5220;43.192;23.284;2022-08-24T00:04:51;3.83;;;2.67;;
10347;SDS011;5220;43.192;23.284;2022-08-24T00:07:20;4.85;;;2.97;;
10347;SDS011;5220;43.192;23.284;2022-08-24T00:09:47;4.47;;;2.75;;
10347;SDS011;5220;43.192;23.284;2022-08-24T00:12:14;6.43;;;3.10;;
10347;SDS011;5220;43.192;23.284;2022-08-24T00:14:41;4.03;;;2.60;;
10347;SDS011;5220;43.192;23.284;2022-08-24T00:17:09;4.72;;;2.42;;
10347;SDS011;5220;43.192;23.284;2022-08-24T00:19:36;5.82;;;2.90;;
10347;SDS011;5220;43.192;23.284;2022-08-24T00:22:03;5.97;;;2.70;;
10347;SDS011;5220;43.192;23.284;2022-08-24T00:24:32;5.95;;;2.50;;
10347;SDS011;5220;43.192;23.284;2022-08-24T00:26:59;6.20;;;2.40;;
10347;SDS011;5220;43.192;23.284;2022-08-24T00:29:25;5.93;;;2.30;;
10347;SDS011;5220;43.192;23.284;2022-08-24T00:31:52;3.72;;;2.75;;
10347;SDS011;5220;43.192;23.284;2022-08-24T00:34:19;4.10;;;3.35;;
10347;SDS011;5220;43.192;23.284;2022-08-24T00:36:46;6.13;;;2.70;;
10347;SDS011;5220;43.192;23.284;2022-08-24T00:39:13;7.90;;;3.28;;
10347;SDS011;5220;43.192;23.284;2022-08-24T00:41:42;7.78;;;2.97;;
10347;SDS011;5220;43.192;23.284;2022-08-24T00:44:10;3.00;;;2.72;;
10347;SDS011;5220;43.192;23.284;2022-08-24T00:46:40;10.85;;;3.58;;
10347;SDS011;5220;43.192;23.284;2022-08-24T00:49:12;7.28;;;2.50;;
10347;SDS011;5220;43.192;23.284;2022-08-24T00:51:49;5.28;;;3.25;;
10347;SDS011;5220;43.192;23.284;2022-08-24T00:54:20;4.95;;;3.13;;
10347;SDS011;5220;43.192;23.284;2022-08-24T00:56:55;3.25;;;2.70;;
10347;SDS011;5220;43.192;23.284;2022-08-24T00:59:27;4.80;;;3.35;;
10347;SDS011;5220;43.192;23.284;2022-08-24T01:01:57;8.77;;;3.10;;
10347;SDS011;5220;43.192;23.284;2022-08-24T01:04:25;9.38;;;3.00;;
10347;SDS011;5220;43.192;23.284;2022-08-24T01:06:56;8.00;;;2.80;;
10347;SDS011;5220;43.192;23.284;2022-08-24T01:09:23;3.05;;;2.85;;
10347;SDS011;5220;43.192;23.284;2022-08-24T01:11:50;2.92;;;2.72;;
10347;SDS011;5220;43.192;23.284;2022-08-24T01:14:19;7.95;;;3.45;;
10347;SDS011;5220;43.192;23.284;2022-08-24T01:16:48;7.05;;;2.97;;
10347;SDS011;5220;43.192;23.284;2022-08-24T01:19:34;5.93;;;3.05;;
10347;SDS011;5220;43.192;23.284;2022-08-24T01:22:08;6.88;;;2.88;;
10347;SDS011;5220;43.192;23.284;2022-08-24T01:24:46;5.57;;;3.00;;
10347;SDS011;5220;43.192;23.284;2022-08-24T01:27:13;5.70;;;3.05;;
10347;SDS011;5220;43.192;23.284;2022-08-24T01:29:41;6.40;;;3.00;;
10347;SDS011;5220;43.192;23.284;2022-08-24T01:32:10;4.20;;;3.08;;
10347;SDS011;5220;43.192;23.284;2022-08-24T01:34:37;7.07;;;3.80;;
10347;SDS011;5220;43.192;23.284;2022-08-24T01:37:04;5.15;;;3.17;;
10347;SDS011;5220;43.192;23.284;2022-08-24T01:39:35;5.75;;;3.25;;
10347;SDS011;5220;43.192;23.284;2022-08-24T01:42:06;6.65;;;3.17;;
10347;SDS011;5220;43.192;23.284;2022-08-24T01:44:33;5.35;;;2.83;;
10347;SDS011;5220;43.192;23.284;2022-08-24T01:47:02;4.60;;;2.90;;
10347;SDS011;5220;43.192;23.284;2022-08-24T01:49:32;5.60;;;2.95;;
10347;SDS011;5220;43.192;23.284;2022-08-24T01:52:00;7.07;;;3.30;;
10347;SDS011;5220;43.192;23.284;2022-08-24T01:54:27;10.10;;;3.15;;
10347;SDS011;5220;43.192;23.284;2022-08-24T01:56:55;5.20;;;3.03;;
10347;SDS011;5220;43.192;23.284;2022-08-24T01:59:24;3.28;;;2.97;;
10347;SDS011;5220;43.192;23.284;2022-08-24T02:01:52;3.85;;;2.90;;
10347;SDS011;5220;43.192;23.284;2022-08-24T02:04:22;7.15;;;3.15;;
10347;SDS011;5220;43.192;23.284;2022-08-24T02:06:48;5.85;;;2.80;;
10347;SDS011;5220;43.192;23.284;2022-08-24T02:09:16;7.28;;;3.63;;
10347;SDS011;5220;43.192;23.284;2022-08-24T02:11:42;7.70;;;3.53;;
10347;SDS011;5220;43.192;23.284;2022-08-24T02:14:09;5.22;;;3.45;;
10347;SDS011;5220;43.192;23.284;2022-08-24T02:16:37;6.10;;;3.47;;
10347;SDS011;5220;43.192;23.284;2022-08-24T02:19:04;4.55;;;2.70;;
10347;SDS011;5220;43.192;23.284;2022-08-24T02:21:32;6.70;;;3.30;;
10347;SDS011;5220;43.192;23.284;2022-08-24T02:23:59;4.63;;;3.65;;
10347;SDS011;5220;43.192;23.284;2022-08-24T02:26:26;7.22;;;4.18;;
10347;SDS011;5220;43.192;23.284;2022-08-24T02:28:53;7.97;;;3.75;;
10347;SDS011;5220;43.192;23.284;2022-08-24T02:31:19;4.25;;;3.10;;
10347;SDS011;5220;43.192;23.284;2022-08-24T02:33:48;6.40;;;3.33;;
10347;SDS011;5220;43.192;23.284;2022-08-24T02:36:14;7.45;;;3.20;;
10347;SDS011;5220;43.192;23.284;2022-08-24T02:38:41;8.65;;;3.55;;
10347;SDS011;5220;43.192;23.284;2022-08-24T02:41:09;7.25;;;3.90;;
10347;SDS011;5220;43.192;23.284;2022-08-24T02:43:36;10.00;;;4.07;;
10347;SDS011;5220;43.192;23.284;2022-08-24T02:46:03;5.95;;;3.58;;
10347;SDS011;5220;43.192;23.284;2022-08-24T02:48:30;4.75;;;3.15;;
10347;SDS011;5220;43.192;23.284;2022-08-24T02:50:59;8.57;;;3.72;;
10347;SDS011;5220;43.192;23.284;2022-08-24T02:53:25;5.75;;;3.38;;
10347;SDS011;5220;43.192;23.284;2022-08-24T02:55:52;6.13;;;4.10;;
10347;SDS011;5220;43.192;23.284;2022-08-24T02:58:19;6.85;;;3.50;;
10347;SDS011;5220;43.192;23.284;2022-08-24T03:00:46;5.90;;;3.85;;
10347;SDS011;5220;43.192;23.284;2022-08-24T03:03:13;6.95;;;4.18;;
10347;SDS011;5220;43.192;23.284;2022-08-24T03:05:40;7.10;;;3.67;;
10347;SDS011;5220;43.192;23.284;2022-08-24T03:08:09;4.25;;;3.70;;
10347;SDS011;5220;43.192;23.284;2022-08-24T03:10:36;4.28;;;3.72;;
10347;SDS011;5220;43.192;23.284;2022-08-24T03:13:03;5.35;;;3.70;;
10347;SDS011;5220;43.192;23.284;2022-08-24T03:15:30;4.30;;;3.58;;
10347;SDS011;5220;43.192;23.284;2022-08-24T03:17:57;6.55;;;3.50;;
10347;SDS011;5220;43.192;23.284;2022-08-24T03:20:23;5.55;;;3.65;;
10347;SDS011;5220;43.192;23.284;2022-08-24T03:22:51;3.97;;;3.55;;
10347;SDS011;5220;43.192;23.284;2022-08-24T03:25:19;6.55;;;3.95;;
10347;SDS011;5220;43.192;23.284;2022-08-24T03:27:49;3.97;;;3.60;;
10347;SDS011;5220;43.192;23.284;2022-08-24T03:30:16;9.05;;;4.28;;
10347;SDS011;5220;43.192;23.284;2022-08-24T03:32:44;5.50;;;3.60;;
10347;SDS011;5220;43.192;23.284;2022-08-24T03:35:11;4.18;;;3.78;;
10347;SDS011;5220;43.192;23.284;2022-08-24T03:37:39;6.90;;;3.58;;
10347;SDS011;5220;43.192;23.284;2022-08-24T03:40:06;4.88;;;3.05;;
10347;SDS011;5220;43.192;23.284;2022-08-24T03:42:37;6.63;;;4.20;;
10347;SDS011;5220;43.192;23.284;2022-08-24T03:45:05;4.85;;;3.38;;
10347;SDS011;5220;43.192;23.284;2022-08-24T03:47:33;4.50;;;3.65;;
10347;SDS011;5220;43.192;23.284;2022-08-24T03:50:00;8.70;;;4.05;;
10347;SDS011;5220;43.192;23.284;2022-08-24T03:52:26;5.47;;;3.35;;
10347;SDS011;5220;43.192;23.284;2022-08-24T03:54:53;6.75;;;3.92;;
10347;SDS011;5220;43.192;23.284;2022-08-24T03:57:20;4.22;;;3.90;;
10347;SDS011;5220;43.192;23.284;2022-08-24T03:59:48;8.07;;;3.95;;
10347;SDS011;5220;43.192;23.284;2022-08-24T04:02:15;8.95;;;5.15;;
10347;SDS011;5220;43.192;23.284;2022-08-24T04:04:42;5.25;;;4.22;;
10347;SDS011;5220;43.192;23.284;2022-08-24T04:07:08;12.30;;;4.45;;
10347;SDS011;5220;43.192;23.284;2022-08-24T04:09:35;9.77;;;4.20;;
10347;SDS011;5220;43.192;23.284;2022-08-24T04:12:02;5.68;;;4.47;;
10347;SDS011;5220;43.192;23.284;2022-08-24T04:14:29;5.50;;;4.50;;
10347;SDS011;5220;43.192;23.284;2022-08-24T04:16:57;6.97;;;4.47;;
10347;SDS011;5220;43.192;23.284;2022-08-24T04:19:24;5.20;;;4.70;;
10347;SDS011;5220;43.192;23.284;2022-08-24T04:21:51;5.65;;;4.28;;
10347;SDS011;5220;43.192;23.284;2022-08-24T04:24:23;8.85;;;4.70;;
10347;SDS011;5220;43.192;23.284;2022-08-24T04:26:50;6.18;;;4.65;;
10347;SDS011;5220;43.192;23.284;2022-08-24T04:29:19;10.32;;;5.03;;
10347;SDS011;5220;43.192;23.284;2022-08-24T04:31:46;5.82;;;4.30;;
10347;SDS011;5220;43.192;23.284;2022-08-24T04:34:14;6.47;;;5.47;;
10347;SDS011;5220;43.192;23.284;2022-08-24T04:36:42;7.45;;;5.10;;
10347;SDS011;5220;43.192;23.284;2022-08-24T04:39:10;8.80;;;5.22;;
10347;SDS011;5220;43.192;23.284;2022-08-24T04:41:38;8.73;;;5.55;;
10347;SDS011;5220;43.192;23.284;2022-08-24T04:44:06;7.15;;;5.18;;
10347;SDS011;5220;43.192;23.284;2022-08-24T04:46:32;7.40;;;6.05;;
10347;SDS011;5220;43.192;23.284;2022-08-24T04:48:59;6.95;;;5.75;;
10347;SDS011;5220;43.192;23.284;2022-08-24T04:51:27;9.90;;;6.28;;
10347;SDS011;5220;43.192;23.284;2022-08-24T04:53:54;8.45;;;6.78;;
10347;SDS011;5220;43.192;23.284;2022-08-24T04:56:21;6.43;;;5.82;;
10347;SDS011;5220;43.192;23.284;2022-08-24T04:58:50;16.50;;;13.75;;
10347;SDS011;5220;43.192;23.284;2022-08-24T05:01:17;15.05;;;13.10;;
10347;SDS011;5220;43.192;23.284;2022-08-24T05:03:46;10.45;;;9.35;;
10347;SDS011;5220;43.192;23.284;2022-08-24T05:06:14;8.88;;;7.88;;
10347;SDS011;5220;43.192;23.284;2022-08-24T05:08:44;10.73;;;6.57;;
10347;SDS011;5220;43.192;23.284;2022-08-24T05:11:11;8.63;;;7.38;;
10347;SDS011;5220;43.192;23.284;2022-08-24T05:13:38;7.90;;;7.10;;
10347;SDS011;5220;43.192;23.284;2022-08-24T05:16:06;9.43;;;6.80;;
10347;SDS011;5220;43.192;23.284;2022-08-24T05:18:34;8.05;;;7.00;;
10347;SDS011;5220;43.192;23.284;2022-08-24T05:21:04;9.85;;;7.03;;
10347;SDS011;5220;43.192;23.284;2022-08-24T05:23:32;7.03;;;6.13;;
10347;SDS011;5220;43.192;23.284;2022-08-24T05:26:04;7.30;;;6.30;;
10347;SDS011;5220;43.192;23.284;2022-08-24T05:28:32;8.07;;;6.65;;
10347;SDS011;5220;43.192;23.284;2022-08-24T05:31:05;9.50;;;6.38;;
10347;SDS011;5220;43.192;23.284;2022-08-24T05:33:33;6.55;;;6.05;;
10347;SDS011;5220;43.192;23.284;2022-08-24T05:36:00;6.80;;;6.13;;
10347;SDS011;5220;43.192;23.284;2022-08-24T05:38:27;7.40;;;6.47;;
10347;SDS011;5220;43.192;23.284;2022-08-24T05:40:54;7.40;;;6.60;;
10347;SDS011;5220;43.192;23.284;2022-08-24T05:43:22;7.38;;;6.63;;
10347;SDS011;5220;43.192;23.284;2022-08-24T05:45:49;7.45;;;6.32;;
10347;SDS011;5220;43.192;23.284;2022-08-24T05:48:15;9.77;;;6.35;;
10347;SDS011;5220;43.192;23.284;2022-08-24T05:50:42;6.65;;;6.03;;
10347;SDS011;5220;43.192;23.284;2022-08-24T05:53:09;8.00;;;6.97;;
10347;SDS011;5220;43.192;23.284;2022-08-24T05:55:37;10.57;;;6.30;;
10347;SDS011;5220;43.192;23.284;2022-08-24T05:58:04;9.07;;;6.20;;
10347;SDS011;5220;43.192;23.284;2022-08-24T06:00:33;7.68;;;6.07;;
10347;SDS011;5220;43.192;23.284;2022-08-24T06:02:59;7.90;;;6.43;;
10347;SDS011;5220;43.192;23.284;2022-08-24T06:05:26;7.22;;;6.63;;
10347;SDS011;5220;43.192;23.284;2022-08-24T06:07:53;10.93;;;7.20;;
10347;SDS011;5220;43.192;23.284;2022-08-24T06:10:20;6.90;;;6.20;;
10347;SDS011;5220;43.192;23.284;2022-08-24T06:12:47;8.60;;;6.45;;
10347;SDS011;5220;43.192;23.284;2022-08-24T06:15:14;9.15;;;6.68;;
10347;SDS011;5220;43.192;23.284;2022-08-24T06:17:43;9.10;;;6.40;;
10347;SDS011;5220;43.192;23.284;2022-08-24T06:20:10;7.40;;;6.78;;
10347;SDS011;5220;43.192;23.284;2022-08-24T06:22:36;7.95;;;7.15;;
10347;SDS011;5220;43.192;23.284;2022-08-24T06:25:04;7.53;;;6.82;;
10347;SDS011;5220;43.192;23.284;2022-08-24T06:27:49;6.93;;;6.15;;
10347;SDS011;5220;43.192;23.284;2022-08-24T06:30:16;11.25;;;7.22;;
10347;SDS011;5220;43.192;23.284;2022-08-24T06:32:45;7.95;;;7.13;;
10347;SDS011;5220;43.192;23.284;2022-08-24T06:35:11;9.88;;;5.85;;
10347;SDS011;5220;43.192;23.284;2022-08-24T06:37:38;8.50;;;6.32;;
10347;SDS011;5220;43.192;23.284;2022-08-24T06:40:12;9.20;;;6.43;;
10347;SDS011;5220;43.192;23.284;2022-08-24T06:42:39;6.63;;;6.05;;
10347;SDS011;5220;43.192;23.284;2022-08-24T06:45:06;7.63;;;6.93;;
10347;SDS011;5220;43.192;23.284;2022-08-24T06:47:33;8.00;;;6.50;;
10347;SDS011;5220;43.192;23.284;2022-08-24T06:50:02;10.13;;;6.32;;
10347;SDS011;5220;43.192;23.284;2022-08-24T06:52:30;7.70;;;6.20;;
10347;SDS011;5220;43.192;23.284;2022-08-24T06:54:57;8.02;;;6.47;;
10347;SDS011;5220;43.192;23.284;2022-08-24T06:57:24;7.75;;;6.97;;
10347;SDS011;5220;43.192;23.284;2022-08-24T06:59:57;7.70;;;7.03;;
10347;SDS011;5220;43.192;23.284;2022-08-24T07:02:24;8.27;;;6.63;;
10347;SDS011;5220;43.192;23.284;2022-08-24T07:04:51;7.22;;;6.47;;
10347;SDS011;5220;43.192;23.284;2022-08-24T07:07:19;8.50;;;6.30;;
10347;SDS011;5220;43.192;23.284;2022-08-24T07:09:46;6.28;;;5.50;;
10347;SDS011;5220;43.192;23.284;2022-08-24T07:12:13;6.13;;;5.53;;
10347;SDS011;5220;43.192;23.284;2022-08-24T07:14:39;7.05;;;6.00;;
10347;SDS011;5220;43.192;23.284;2022-08-24T07:17:06;7.18;;;6.18;;
10347;SDS011;5220;43.192;23.284;2022-08-24T07:19:39;6.30;;;5.80;;
10347;SDS011;5220;43.192;23.284;2022-08-24T07:22:06;7.07;;;5.85;;
10347;SDS011;5220;43.192;23.284;2022-08-24T07:24:34;6.82;;;6.13;;
10347;SDS011;5220;43.192;23.284;2022-08-24T07:27:01;5.70;;;5.20;;
10347;SDS011;5220;43.192;23.284;2022-08-24T07:29:28;6.28;;;5.45;;
10347;SDS011;5220;43.192;23.284;2022-08-24T07:31:56;6.30;;;5.70;;
10347;SDS011;5220;43.192;23.284;2022-08-24T07:34:23;6.13;;;5.57;;
10347;SDS011;5220;43.192;23.284;2022-08-24T07:36:50;6.00;;;5.25;;
10347;SDS011;5220;43.192;23.284;2022-08-24T07:39:18;7.72;;;5.65;;
10347;SDS011;5220;43.192;23.284;2022-08-24T07:41:46;7.10;;;5.60;;
10347;SDS011;5220;43.192;23.284;2022-08-24T07:44:13;5.80;;;5.25;;
10347;SDS011;5220;43.192;23.284;2022-08-24T07:46:40;8.18;;;5.82;;
10347;SDS011;5220;43.192;23.284;2022-08-24T07:49:07;5.95;;;5.45;;
10347;SDS011;5220;43.192;23.284;2022-08-24T07:54:47;6.57;;;5.60;;
10347;SDS011;5220;43.192;23.284;2022-08-24T07:57:15;5.93;;;5.43;;
10347;SDS011;5220;43.192;23.284;2022-08-24T07:59:42;6.10;;;5.60;;
10347;SDS011;5220;43.192;23.284;2022-08-24T08:02:11;7.05;;;6.13;;
10347;SDS011;5220;43.192;23.284;2022-08-24T08:04:38;7.63;;;5.50;;
10347;SDS011;5220;43.192;23.284;2022-08-24T08:07:05;8.50;;;5.93;;
10347;SDS011;5220;43.192;23.284;2022-08-24T08:16:09;10.15;;;6.35;;
10347;SDS011;5220;43.192;23.284;2022-08-24T08:18:36;8.70;;;6.55;;
10347;SDS011;5220;43.192;23.284;2022-08-24T08:21:04;6.65;;;6.05;;
10347;SDS011;5220;43.192;23.284;2022-08-24T08:23:51;6.32;;;5.50;;
10347;SDS011;5220;43.192;23.284;2022-08-24T08:26:35;5.80;;;5.30;;
10347;SDS011;5220;43.192;23.284;2022-08-24T08:29:06;9.40;;;5.18;;
10347;SDS011;5220;43.192;23.284;2022-08-24T08:31:36;8.88;;;5.63;;
10347;SDS011;5220;43.192;23.284;2022-08-24T08:37:24;5.80;;;5.22;;
10347;SDS011;5220;43.192;23.284;2022-08-24T08:43:15;6.85;;;5.13;;
10347;SDS011;5220;43.192;23.284;2022-08-24T08:46:05;6.78;;;5.50;;
10347;SDS011;5220;43.192;23.284;2022-08-24T08:55:25;6.55;;;5.60;;
10347;SDS011;5220;43.192;23.284;2022-08-24T08:58:01;6.68;;;5.47;;
10347;SDS011;5220;43.192;23.284;2022-08-24T09:00:43;5.82;;;5.32;;
10347;SDS011;5220;43.192;23.284;2022-08-24T09:03:22;7.22;;;6.53;;
10347;SDS011;5220;43.192;23.284;2022-08-24T09:06:21;7.00;;;5.40;;
10347;SDS011;5220;43.192;23.284;2022-08-24T09:12:03;6.40;;;5.72;;
10347;SDS011;5220;43.192;23.284;2022-08-24T09:14:45;8.88;;;6.10;;
10347;SDS011;5220;43.192;23.284;2022-08-24T09:17:34;7.07;;;6.40;;
10347;SDS011;5220;43.192;23.284;2022-08-24T09:26:03;6.82;;;6.25;;
10347;SDS011;5220;43.192;23.284;2022-08-24T09:28:50;7.80;;;6.55;;
10347;SDS011;5220;43.192;23.284;2022-08-24T09:31:30;6.93;;;6.22;;
10347;SDS011;5220;43.192;23.284;2022-08-24T09:34:25;6.88;;;6.28;;
10347;SDS011;5220;43.192;23.284;2022-08-24T09:37:11;7.68;;;6.57;;
10347;SDS011;5220;43.192;23.284;2022-08-24T09:46:18;7.88;;;6.32;;
10347;SDS011;5220;43.192;23.284;2022-08-24T09:58:52;8.23;;;5.78;;
10347;SDS011;5220;43.192;23.284;2022-08-24T10:01:34;6.93;;;6.22;;
10347;SDS011;5220;43.192;23.284;2022-08-24T10:04:09;8.52;;;5.50;;
10347;SDS011;5220;43.192;23.284;2022-08-24T10:06:52;7.03;;;5.82;;
10347;SDS011;5220;43.192;23.284;2022-08-24T10:15:29;6.68;;;6.07;;
10347;SDS011;5220;43.192;23.284;2022-08-24T10:18:06;8.45;;;6.40;;
10347;SDS011;5220;43.192;23.284;2022-08-24T10:20:49;8.35;;;6.72;;
10347;SDS011;5220;43.192;23.284;2022-08-24T10:23:31;7.22;;;6.53;;
10347;SDS011;5220;43.192;23.284;2022-08-24T10:29:25;7.05;;;6.45;;
10347;SDS011;5220;43.192;23.284;2022-08-24T10:32:06;8.25;;;5.97;;
10347;SDS011;5220;43.192;23.284;2022-08-24T10:34:51;8.70;;;6.60;;
10347;SDS011;5220;43.192;23.284;2022-08-24T10:40:39;7.03;;;6.32;;
10347;SDS011;5220;43.192;23.284;2022-08-24T10:43:21;7.03;;;6.38;;
10347;SDS011;5220;43.192;23.284;2022-08-24T10:55:12;8.00;;;7.03;;
10347;SDS011;5220;43.192;23.284;2022-08-24T10:57:44;7.50;;;6.63;;
10347;SDS011;5220;43.192;23.284;2022-08-24T11:00:24;7.20;;;6.57;;
10347;SDS011;5220;43.192;23.284;2022-08-24T11:03:03;7.07;;;6.47;;
10347;SDS011;5220;43.192;23.284;2022-08-24T11:05:34;6.22;;;5.63;;
10347;SDS011;5220;43.192;23.284;2022-08-24T11:08:06;6.97;;;6.38;;
10347;SDS011;5220;43.192;23.284;2022-08-24T11:10:36;8.00;;;7.30;;
10347;SDS011;5220;43.192;23.284;2022-08-24T11:13:17;7.78;;;6.65;;
10347;SDS011;5220;43.192;23.284;2022-08-24T11:15:49;6.75;;;6.07;;
10347;SDS011;5220;43.192;23.284;2022-08-24T11:18:18;6.97;;;6.38;;
10347;SDS011;5220;43.192;23.284;2022-08-24T11:20:46;6.07;;;5.50;;
10347;SDS011;5220;43.192;23.284;2022-08-24T11:23:14;7.65;;;5.90;;
10347;SDS011;5220;43.192;23.284;2022-08-24T11:25:52;7.80;;;6.22;;
10347;SDS011;5220;43.192;23.284;2022-08-24T11:31:07;8.57;;;6.50;;
10347;SDS011;5220;43.192;23.284;2022-08-24T11:33:44;8.18;;;6.15;;
10347;SDS011;5220;43.192;23.284;2022-08-24T11:36:13;6.68;;;6.07;;
10347;SDS011;5220;43.192;23.284;2022-08-24T11:38:41;6.20;;;5.45;;
10347;SDS011;5220;43.192;23.284;2022-08-24T11:41:19;10.70;;;7.05;;
10347;SDS011;5220;43.192;23.284;2022-08-24T11:43:54;6.72;;;6.07;;
10347;SDS011;5220;43.192;23.284;2022-08-24T11:46:27;7.10;;;6.50;;
10347;SDS011;5220;43.192;23.284;2022-08-24T11:49:02;7.95;;;6.07;;
10347;SDS011;5220;43.192;23.284;2022-08-24T11:51:37;7.32;;;6.63;;
10347;SDS011;5220;43.192;23.284;2022-08-24T11:54:14;8.85;;;7.90;;
10347;SDS011;5220;43.192;23.284;2022-08-24T11:56:52;8.13;;;7.43;;
10347;SDS011;5220;43.192;23.284;2022-08-24T11:59:32;11.80;;;10.48;;
10347;SDS011;5220;43.192;23.284;2022-08-24T12:02:07;16.20;;;14.50;;
10347;SDS011;5220;43.192;23.284;2022-08-24T12:04:40;15.18;;;13.77;;
10347;SDS011;5220;43.192;23.284;2022-08-24T12:07:19;15.40;;;13.85;;
10347;SDS011;5220;43.192;23.284;2022-08-24T12:16:44;15.70;;;12.95;;
10347;SDS011;5220;43.192;23.284;2022-08-24T12:19:18;14.05;;;11.00;;
10347;SDS011;5220;43.192;23.284;2022-08-24T12:21:49;8.95;;;8.05;;
10347;SDS011;5220;43.192;23.284;2022-08-24T12:24:21;11.40;;;10.20;;
10347;SDS011;5220;43.192;23.284;2022-08-24T12:36:40;12.10;;;9.88;;
10347;SDS011;5220;43.192;23.284;2022-08-24T12:39:21;9.65;;;8.15;;
10347;SDS011;5220;43.192;23.284;2022-08-24T12:41:57;9.55;;;7.60;;
10347;SDS011;5220;43.192;23.284;2022-08-24T12:44:34;7.75;;;7.00;;
10347;SDS011;5220;43.192;23.284;2022-08-24T12:47:08;8.07;;;7.28;;
10347;SDS011;5220;43.192;23.284;2022-08-24T12:56:04;10.45;;;9.35;;
10347;SDS011;5220;43.192;23.284;2022-08-24T13:01:30;10.00;;;8.20;;
10347;SDS011;5220;43.192;23.284;2022-08-24T13:04:07;8.45;;;7.63;;
10347;SDS011;5220;43.192;23.284;2022-08-24T13:06:40;11.05;;;7.18;;
10347;SDS011;5220;43.192;23.284;2022-08-24T13:09:14;8.48;;;7.22;;
10347;SDS011;5220;43.192;23.284;2022-08-24T13:11:53;7.95;;;7.13;;
10347;SDS011;5220;43.192;23.284;2022-08-24T13:14:22;9.10;;;8.25;;
10347;SDS011;5220;43.192;23.284;2022-08-24T13:20:17;9.43;;;6.68;;
10347;SDS011;5220;43.192;23.284;2022-08-24T13:22:47;7.38;;;6.65;;
10347;SDS011;5220;43.192;23.284;2022-08-24T13:25:50;8.68;;;7.20;;
10347;SDS011;5220;43.192;23.284;2022-08-24T13:31:37;9.18;;;8.00;;
10347;SDS011;5220;43.192;23.284;2022-08-24T13:37:10;9.23;;;7.80;;
10347;SDS011;5220;43.192;23.284;2022-08-24T13:39:49;7.80;;;7.10;;
10347;SDS011;5220;43.192;23.284;2022-08-24T14:24:02;9.30;;;7.88;;
10347;SDS011;5220;43.192;23.284;2022-08-24T14:29:46;9.10;;;7.65;;
10347;SDS011;5220;43.192;23.284;2022-08-24T14:38:03;11.00;;;7.88;;
10347;SDS011;5220;43.192;23.284;2022-08-24T14:40:56;7.88;;;7.18;;
10347;SDS011;5220;43.192;23.284;2022-08-24T14:43:30;8.27;;;7.45;;
10347;SDS011;5220;43.192;23.284;2022-08-24T14:46:11;8.52;;;7.57;;
10347;SDS011;5220;43.192;23.284;2022-08-24T14:48:47;10.80;;;8.10;;
10347;SDS011;5220;43.192;23.284;2022-08-24T14:51:29;10.98;;;8.10;;
10347;SDS011;5220;43.192;23.284;2022-08-24T14:54:11;9.73;;;7.38;;
10347;SDS011;5220;43.192;23.284;2022-08-24T14:56:52;7.80;;;6.88;;
10347;SDS011;5220;43.192;23.284;2022-08-24T14:59:31;8.40;;;7.45;;
10347;SDS011;5220;43.192;23.284;2022-08-24T15:02:28;8.70;;;7.88;;
10347;SDS011;5220;43.192;23.284;2022-08-24T15:05:12;11.70;;;7.72;;
10347;SDS011;5220;43.192;23.284;2022-08-24T15:07:51;8.45;;;7.60;;
10347;SDS011;5220;43.192;23.284;2022-08-24T15:10:22;9.88;;;7.82;;
10347;SDS011;5220;43.192;23.284;2022-08-24T15:12:54;8.57;;;7.70;;
10347;SDS011;5220;43.192;23.284;2022-08-24T15:15:26;9.32;;;7.57;;
10347;SDS011;5220;43.192;23.284;2022-08-24T15:17:59;8.93;;;7.80;;
10347;SDS011;5220;43.192;23.284;2022-08-24T15:20:41;10.68;;;8.43;;
10347;SDS011;5220;43.192;23.284;2022-08-24T15:26:06;9.30;;;7.28;;
10347;SDS011;5220;43.192;23.284;2022-08-24T15:28:37;10.40;;;8.60;;
10347;SDS011;5220;43.192;23.284;2022-08-24T15:31:17;8.43;;;7.55;;
10347;SDS011;5220;43.192;23.284;2022-08-24T15:33:52;10.85;;;8.05;;
10347;SDS011;5220;43.192;23.284;2022-08-24T15:36:21;9.82;;;8.27;;
10347;SDS011;5220;43.192;23.284;2022-08-24T15:38:48;10.77;;;8.27;;
10347;SDS011;5220;43.192;23.284;2022-08-24T15:41:16;8.95;;;8.13;;
10347;SDS011;5220;43.192;23.284;2022-08-24T15:43:47;9.25;;;8.27;;
10347;SDS011;5220;43.192;23.284;2022-08-24T15:46:25;8.82;;;8.05;;
10347;SDS011;5220;43.192;23.284;2022-08-24T15:48:57;9.05;;;8.15;;
10347;SDS011;5220;43.192;23.284;2022-08-24T15:51:36;8.05;;;7.35;;
10347;SDS011;5220;43.192;23.284;2022-08-24T15:54:16;9.82;;;8.85;;
10347;SDS011;5220;43.192;23.284;2022-08-24T15:56:58;10.10;;;8.57;;
10347;SDS011;5220;43.192;23.284;2022-08-24T15:59:29;9.38;;;8.43;;
10347;SDS011;5220;43.192;23.284;2022-08-24T16:01:58;9.45;;;8.57;;
10347;SDS011;5220;43.192;23.284;2022-08-24T16:04:58;11.73;;;9.27;;
10347;SDS011;5220;43.192;23.284;2022-08-24T16:10:27;9.57;;;8.70;;
10347;SDS011;5220;43.192;23.284;2022-08-24T16:13:04;11.07;;;9.43;;
10347;SDS011;5220;43.192;23.284;2022-08-24T16:15:33;10.82;;;8.70;;
10347;SDS011;5220;43.192;23.284;2022-08-24T16:18:09;11.05;;;9.25;;
10347;SDS011;5220;43.192;23.284;2022-08-24T16:20:37;11.52;;;10.15;;
10347;SDS011;5220;43.192;23.284;2022-08-24T16:23:05;12.02;;;9.80;;
10347;SDS011;5220;43.192;23.284;2022-08-24T16:25:34;10.88;;;9.80;;
10347;SDS011;5220;43.192;23.284;2022-08-24T16:28:07;10.27;;;9.20;;
10347;SDS011;5220;43.192;23.284;2022-08-24T16:30:48;10.40;;;8.80;;
10347;SDS011;5220;43.192;23.284;2022-08-24T16:36:04;15.43;;;9.20;;
10347;SDS011;5220;43.192;23.284;2022-08-24T16:38:33;10.23;;;8.13;;
10347;SDS011;5220;43.192;23.284;2022-08-24T16:41:02;10.95;;;8.77;;
10347;SDS011;5220;43.192;23.284;2022-08-24T16:43:32;9.45;;;8.50;;
10347;SDS011;5220;43.192;23.284;2022-08-24T16:46:01;10.98;;;9.35;;
10347;SDS011;5220;43.192;23.284;2022-08-24T16:48:32;10.13;;;8.57;;
10347;SDS011;5220;43.192;23.284;2022-08-24T16:50:59;15.35;;;9.52;;
10347;SDS011;5220;43.192;23.284;2022-08-24T16:53:27;17.65;;;9.25;;
10347;SDS011;5220;43.192;23.284;2022-08-24T16:55:54;10.57;;;8.73;;
10347;SDS011;5220;43.192;23.284;2022-08-24T16:58:21;13.63;;;8.88;;
10347;SDS011;5220;43.192;23.284;2022-08-24T17:00:53;9.50;;;8.45;;
10347;SDS011;5220;43.192;23.284;2022-08-24T17:03:21;15.15;;;8.63;;
10347;SDS011;5220;43.192;23.284;2022-08-24T17:05:49;11.30;;;8.90;;
10347;SDS011;5220;43.192;23.284;2022-08-24T17:08:15;10.30;;;8.75;;
10347;SDS011;5220;43.192;23.284;2022-08-24T17:10:42;13.05;;;9.20;;
10347;SDS011;5220;43.192;23.284;2022-08-24T17:13:10;12.05;;;9.07;;
10347;SDS011;5220;43.192;23.284;2022-08-24T17:15:36;14.20;;;9.90;;
10347;SDS011;5220;43.192;23.284;2022-08-24T17:18:04;12.73;;;9.52;;
10347;SDS011;5220;43.192;23.284;2022-08-24T17:20:35;17.65;;;11.25;;
10347;SDS011;5220;43.192;23.284;2022-08-24T17:23:02;16.38;;;12.18;;
10347;SDS011;5220;43.192;23.284;2022-08-24T17:25:29;12.82;;;11.52;;
10347;SDS011;5220;43.192;23.284;2022-08-24T17:27:56;11.98;;;10.45;;
10347;SDS011;5220;43.192;23.284;2022-08-24T17:30:24;12.63;;;9.80;;
10347;SDS011;5220;43.192;23.284;2022-08-24T17:32:52;14.57;;;9.63;;
10347;SDS011;5220;43.192;23.284;2022-08-24T17:35:21;12.23;;;9.38;;
10347;SDS011;5220;43.192;23.284;2022-08-24T17:37:51;11.30;;;9.77;;
10347;SDS011;5220;43.192;23.284;2022-08-24T17:40:19;10.75;;;9.07;;
10347;SDS011;5220;43.192;23.284;2022-08-24T17:42:48;13.02;;;8.95;;
10347;SDS011;5220;43.192;23.284;2022-08-24T17:45:15;11.52;;;9.48;;
10347;SDS011;5220;43.192;23.284;2022-08-24T17:50:12;10.80;;;9.15;;
10347;SDS011;5220;43.192;23.284;2022-08-24T17:52:40;13.20;;;9.32;;
10347;SDS011;5220;43.192;23.284;2022-08-24T17:55:10;10.10;;;8.88;;
10347;SDS011;5220;43.192;23.284;2022-08-24T17:57:39;12.20;;;10.15;;
10347;SDS011;5220;43.192;23.284;2022-08-24T18:00:07;13.70;;;9.65;;